Time;durP1;ratioP1;P1;durP2;ratioP2;P2;SDS_P1;SDS_P2;PMS_P1;PMS_P2;Temp;Humidity;BMP_temperature;BMP_pressure;BME280_temperature;BME280_humidity;BME280_pressure;Samples;Min_cycle;Max_cycle;Signal;HPM_P1;HPM_P2
2022/12/12 00:04:27;;;;;;;16.60;5.43;;;;;;;7.24;100.00;99254.50;1690765;84;21051;-73
2022/12/12 00:07:25;;;;;;;12.53;5.50;;;;;;;7.21;100.00;99243.59;1691866;84;21016;-73
2022/12/12 00:09:51;;;;;;;10.93;5.27;;;;;;;7.19;100.00;99229.48;1690580;84;21532;-73
2022/12/12 00:12:18;;;;;;;15.00;5.97;;;;;;;7.18;100.00;99235.02;1690457;84;21050;-73
2022/12/12 00:14:46;;;;;;;10.67;5.07;;;;;;;7.15;100.00;99237.56;1688766;84;21047;-73
2022/12/12 00:17:13;;;;;;;13.93;5.47;;;;;;;7.13;100.00;99233.34;1686747;85;21051;-73
2022/12/12 00:19:42;;;;;;;12.03;5.13;;;;;;;7.10;100.00;99243.95;1684762;85;21099;-73
2022/12/12 00:22:09;;;;;;;11.83;5.50;;;;;;;7.10;100.00;99239.05;1687029;84;21501;-73
2022/12/12 00:24:35;;;;;;;14.33;5.30;;;;;;;7.08;100.00;99232.48;1689372;84;21476;-73
2022/12/12 00:27:04;;;;;;;14.67;5.80;;;;;;;7.06;100.00;99225.62;1690254;84;21054;-73
2022/12/12 00:29:33;;;;;;;12.80;6.00;;;;;;;7.03;100.00;99211.51;1685317;85;21469;-73
2022/12/12 00:32:00;;;;;;;17.83;6.30;;;;;;;6.99;100.00;99206.15;1687257;84;21540;-73
2022/12/12 00:34:26;;;;;;;13.37;5.73;;;;;;;6.97;100.00;99206.80;1691377;84;21059;-73
2022/12/12 00:36:53;;;;;;;16.70;6.70;;;;;;;6.96;100.00;99202.95;1683608;85;21492;-73
2022/12/12 00:39:21;;;;;;;11.57;5.70;;;;;;;6.93;100.00;99193.87;1687140;84;21094;-73
2022/12/12 00:41:48;;;;;;;12.10;5.27;;;;;;;6.91;100.00;99199.41;1692979;84;21496;-73
2022/12/12 00:44:15;;;;;;;10.87;5.20;;;;;;;6.91;100.00;99187.84;1688772;84;21084;-73
2022/12/12 00:46:42;;;;;;;14.70;5.40;;;;;;;6.90;100.00;99199.58;1687664;84;21031;-73
2022/12/12 00:49:11;;;;;;;12.80;5.30;;;;;;;6.86;100.00;99195.05;1690480;84;21043;-73
2022/12/12 00:51:39;;;;;;;11.43;5.07;;;;;;;6.84;100.00;99181.77;1691901;84;21042;-73
2022/12/12 00:54:06;;;;;;;12.20;5.30;;;;;;;6.89;100.00;99181.28;1687771;85;21083;-73
2022/12/12 00:56:32;;;;;;;11.90;5.53;;;;;;;6.90;100.00;99173.53;1690148;84;21520;-73
2022/12/12 00:59:02;;;;;;;13.07;4.97;;;;;;;6.90;100.00;99160.09;1689401;84;21095;-73
2022/12/12 01:01:31;;;;;;;11.40;5.30;;;;;;;6.89;100.00;99157.09;1685745;84;21550;-73
2022/12/12 01:03:58;;;;;;;12.47;5.10;;;;;;;6.90;100.00;99161.44;1690091;84;21530;-73
2022/12/12 01:06:26;;;;;;;11.07;5.23;;;;;;;6.92;100.00;99165.31;1691552;84;21106;-73
2022/12/12 01:08:53;;;;;;;14.60;5.83;;;;;;;6.93;100.00;99159.77;1691387;84;21445;-73
2022/12/12 01:11:20;;;;;;;11.60;5.30;;;;;;;6.92;100.00;99151.88;1688782;84;21043;-73
2022/12/12 01:13:49;;;;;;;11.90;5.10;;;;;;;6.92;100.00;99141.95;1688040;85;21537;-73
2022/12/12 01:16:16;;;;;;;11.43;4.73;;;;;;;6.92;100.00;99136.58;1690473;84;21059;-73
2022/12/12 01:18:44;;;;;;;9.83;4.83;;;;;;;6.93;100.00;99130.72;1685457;84;21083;-73
2022/12/12 01:21:13;;;;;;;13.70;5.70;;;;;;;6.94;100.00;99127.00;1683748;85;21945;-73
2022/12/12 01:23:40;;;;;;;14.17;6.50;;;;;;;6.94;100.00;99121.15;1684577;85;21462;-73
2022/12/12 01:26:11;;;;;;;12.93;6.20;;;;;;;6.94;100.00;99117.59;1687536;84;21043;-73
2022/12/12 01:28:37;;;;;;;9.63;4.63;;;;;;;6.92;100.00;99111.05;1687363;84;21468;-73
2022/12/12 01:31:06;;;;;;;8.23;4.53;;;;;;;6.98;100.00;99112.23;1688598;84;21098;-73
2022/12/12 01:33:33;;;;;;;12.30;5.53;;;;;;;6.99;100.00;99117.45;1690903;84;21492;-73
2022/12/12 01:36:00;;;;;;;11.30;5.40;;;;;;;6.95;100.00;99106.68;1691400;84;21023;-73
2022/12/12 01:38:28;;;;;;;8.43;4.40;;;;;;;6.97;100.00;99119.44;1686788;84;21051;-72
2022/12/12 01:40:55;;;;;;;11.30;5.13;;;;;;;6.99;100.00;99112.07;1683348;85;21047;-73
2022/12/12 01:43:22;;;;;;;12.00;5.00;;;;;;;6.99;100.00;99117.45;1684312;85;21036;-73
2022/12/12 01:46:04;;;;;;;12.10;5.17;;;;;;;6.99;100.00;99103.15;1684261;85;21114;-73
2022/12/12 01:48:41;;;;;;;16.90;5.97;;;;;;;7.00;100.00;99106.18;1689230;84;21404;-73
2022/12/12 01:51:14;;;;;;;12.60;4.83;;;;;;;6.99;100.00;99113.90;1691067;84;21018;-73
2022/12/12 01:53:41;;;;;;;11.80;5.30;;;;;;;7.00;100.00;99123.14;1689072;84;21047;-73
2022/12/12 01:56:11;;;;;;;12.53;5.60;;;;;;;7.00;100.00;99113.73;1691419;84;21046;-73
2022/12/12 01:58:41;;;;;;;15.53;6.33;;;;;;;7.03;100.00;99109.88;1691110;84;21031;-73
2022/12/12 02:01:08;;;;;;;13.97;5.23;;;;;;;7.03;100.00;99105.85;1688125;85;21070;-73
2022/12/12 02:03:35;;;;;;;15.67;5.10;;;;;;;7.04;100.00;99108.85;1691753;84;21007;-73
2022/12/12 02:06:06;;;;;;;13.70;4.87;;;;;;;7.03;100.00;99116.09;1685893;84;21058;-73
2022/12/12 02:08:33;;;;;;;11.17;5.60;;;;;;;7.05;100.00;99105.17;1686465;85;21508;-73
2022/12/12 02:11:00;;;;;;;14.00;5.73;;;;;;;7.08;100.00;99112.03;1677435;84;21055;-73
2022/12/12 02:13:28;;;;;;;13.07;6.07;;;;;;;7.10;100.00;99099.26;1707740;83;21016;-73
2022/12/12 02:16:30;;;;;;;13.97;5.80;;;;;;;7.10;100.00;99100.60;1689793;84;21051;-73
2022/12/12 02:19:20;;;;;;;11.60;5.67;;;;;;;7.10;100.00;99103.29;1685663;84;21028;-73
2022/12/12 02:22:03;;;;;;;15.33;5.43;;;;;;;7.10;100.00;99108.19;1681800;84;21564;-73
2022/12/12 02:24:51;;;;;;;11.50;5.03;;;;;;;7.10;100.00;99113.56;1692834;84;21055;-73
2022/12/12 06:30:08;;;;;;;20.88;9.28;;;;;;;6.44;100.00;99220.17;1821871;77;28143;-73
2022/12/12 06:32:35;;;;;;;19.40;8.83;;;;;;;6.53;100.00;99247.89;1796026;80;21009;-73
2022/12/12 06:35:02;;;;;;;19.47;8.53;;;;;;;6.61;100.00;99189.66;1795797;79;21026;-74
2022/12/12 06:37:29;;;;;;;26.00;9.23;;;;;;;6.63;100.00;99163.97;1795753;80;21607;-74
2022/12/12 06:39:56;;;;;;;17.40;7.77;;;;;;;6.65;100.00;99137.78;1795748;80;21023;-73
2022/12/12 06:42:22;;;;;;;21.83;8.87;;;;;;;6.64;100.00;99128.06;1795698;80;21174;-73
2022/12/12 06:44:49;;;;;;;21.47;8.23;;;;;;;6.65;100.00;99135.09;1787892;79;21050;-73
2022/12/12 06:47:16;;;;;;;23.13;10.70;;;;;;;6.66;100.00;99127.38;1782271;78;21085;-74
2022/12/12 06:49:43;;;;;;;22.70;8.87;;;;;;;6.66;100.00;99111.27;1795724;80;21053;-72
2022/12/12 06:52:09;;;;;;;20.03;8.07;;;;;;;6.67;100.00;99118.30;1794309;80;21058;-73
2022/12/12 06:54:36;;;;;;;18.17;8.50;;;;;;;6.68;100.00;99119.16;1739796;82;21051;-74
2022/12/12 06:57:03;;;;;;;19.70;8.07;;;;;;;6.67;100.00;99128.22;1739803;82;21044;-74
2022/12/12 06:59:37;;;;;;;17.97;7.70;;;;;;;6.68;100.00;99154.08;1744271;80;21044;-73
2022/12/12 07:02:06;;;;;;;19.00;8.60;;;;;;;6.67;100.00;99147.84;1770619;79;21034;-72
2022/12/12 07:04:33;;;;;;;15.80;6.87;;;;;;;6.68;100.00;99158.11;1768151;80;21003;-73
2022/12/12 07:07:00;;;;;;;19.87;7.80;;;;;;;6.67;100.00;99163.13;1795778;80;21077;-73
2022/12/12 07:09:27;;;;;;;22.70;9.00;;;;;;;6.66;100.00;99160.96;1796026;80;21011;-71
2022/12/12 07:11:54;;;;;;;19.80;8.13;;;;;;;6.65;100.00;99166.81;1795641;80;21523;-72
2022/12/12 07:14:20;;;;;;;18.90;8.27;;;;;;;6.68;100.00;99164.31;1795708;80;21037;-73
2022/12/12 07:16:48;;;;;;;18.47;7.23;;;;;;;6.69;100.00;99164.63;1795671;80;21203;-73
2022/12/12 07:19:15;;;;;;;18.23;8.07;;;;;;;6.70;100.00;99152.89;1792439;79;21004;-74
2022/12/12 07:21:42;;;;;;;16.73;7.47;;;;;;;6.71;100.00;99141.16;1795809;79;20996;-75
2022/12/12 07:24:08;;;;;;;16.73;7.37;;;;;;;6.73;100.00;99149.02;1795630;79;21322;-74
2022/12/12 07:26:35;;;;;;;20.70;8.23;;;;;;;6.74;100.00;99136.77;1795714;79;20973;-73
2022/12/12 07:29:04;;;;;;;16.80;7.33;;;;;;;6.74;100.00;99127.88;1795640;79;21489;-74
2022/12/12 07:31:34;;;;;;;18.17;7.63;;;;;;;6.74;100.00;99123.33;1791500;80;21012;-76
2022/12/12 07:34:00;;;;;;;21.53;9.07;;;;;;;6.73;100.00;99122.15;1795916;80;21024;-74
2022/12/12 07:36:28;;;;;;;18.60;8.00;;;;;;;6.73;100.00;99124.36;1795812;80;21032;-75
2022/12/12 07:38:56;;;;;;;19.17;8.60;;;;;;;6.73;100.00;99130.20;1795537;79;21556;-73
2022/12/12 07:41:24;;;;;;;19.63;9.30;;;;;;;6.75;100.00;99145.17;1792826;79;20984;-71
2022/12/12 07:43:53;;;;;;;18.50;7.77;;;;;;;6.76;100.00;99137.43;1795424;79;21038;-75
2022/12/12 07:46:23;;;;;;;18.80;8.03;;;;;;;6.77;100.00;99143.66;1795404;79;20968;-74
2022/12/12 07:48:51;;;;;;;18.20;8.00;;;;;;;6.78;100.00;99138.61;1795502;80;21479;-72
2022/12/12 07:51:29;;;;;;;21.20;9.43;;;;;;;6.79;100.00;99142.98;1794997;80;20992;-64
2022/12/12 07:54:00;;;;;;;23.30;11.03;;;;;;;6.78;100.00;99158.76;1793106;80;21019;-65
2022/12/12 07:56:27;;;;;;;21.73;9.20;;;;;;;6.76;100.00;99145.48;1794095;79;21441;-66
2022/12/12 07:58:56;;;;;;;17.37;8.50;;;;;;;6.80;100.00;99152.23;1790979;78;21503;-64
2022/12/12 08:01:25;;;;;;;21.77;8.37;;;;;;;6.83;100.00;99143.84;1791834;80;21038;-66
2022/12/12 08:03:53;;;;;;;21.00;9.77;;;;;;;6.81;100.00;99151.20;1791193;79;21010;-72
2022/12/12 08:06:21;;;;;;;20.20;8.83;;;;;;;6.82;100.00;99150.72;1795161;80;21033;-75
2022/12/12 08:08:48;;;;;;;16.60;7.20;;;;;;;6.82;100.00;99147.52;1795315;79;20992;-74
2022/12/12 08:11:22;;;;;;;23.17;9.13;;;;;;;6.81;100.00;99135.59;1794954;80;21029;-76
2022/12/12 08:13:49;;;;;;;22.13;8.80;;;;;;;6.81;100.00;99139.11;1794004;79;20978;-73
2022/12/12 08:16:19;;;;;;;20.67;7.77;;;;;;;6.81;100.00;99133.73;1775160;79;21055;-74
2022/12/12 08:18:47;;;;;;;16.27;6.50;;;;;;;6.80;100.00;99134.77;1795394;79;21085;-73
2022/12/12 08:21:16;;;;;;;13.43;6.40;;;;;;;6.80;100.00;99139.30;1794606;80;20997;-74
2022/12/12 08:23:45;;;;;;;20.07;8.43;;;;;;;6.78;100.00;99138.61;1791287;80;20984;-74
2022/12/12 08:26:15;;;;;;;26.90;12.30;;;;;;;6.77;100.00;99141.81;1794759;79;21418;-74
2022/12/12 08:28:48;;;;;;;26.67;12.47;;;;;;;6.75;100.00;99138.97;1789686;79;21058;-73
2022/12/12 08:31:16;;;;;;;23.80;10.37;;;;;;;6.74;100.00;99146.68;1789859;80;21163;-73
2022/12/12 08:37:47;;;;;;;20.80;9.30;;;;;;;6.69;100.00;99161.95;1787611;80;21053;-73
2022/12/12 08:40:17;;;;;;;26.93;11.33;;;;;;;6.67;100.00;99155.91;1788461;80;21011;-65
2022/12/12 08:42:44;;;;;;;28.03;12.07;;;;;;;6.67;100.00;99146.50;1765941;80;20989;-64
2022/12/12 08:45:16;;;;;;;20.30;8.23;;;;;;;6.64;100.00;99151.72;1787525;80;21067;-65
2022/12/12 08:47:43;;;;;;;21.73;9.37;;;;;;;6.62;100.00;99143.00;1788059;80;21035;-66
2022/12/12 08:50:11;;;;;;;24.87;11.07;;;;;;;6.58;100.00;99144.31;1787976;80;21040;-66
2022/12/12 08:52:39;;;;;;;28.27;13.33;;;;;;;6.55;100.00;99144.67;1788224;80;21466;-66
2022/12/12 08:55:07;;;;;;;23.23;8.73;;;;;;;6.53;100.00;99136.43;1788138;80;21036;-66
2022/12/12 08:57:35;;;;;;;20.27;8.47;;;;;;;6.51;100.00;99141.13;1788138;80;20984;-65
2022/12/12 09:00:43;;;;;;;17.97;8.83;;;;;;;6.48;100.00;99134.27;1786352;80;21079;-67
2022/12/12 09:03:17;;;;;;;19.13;8.10;;;;;;;6.48;100.00;99134.75;1755757;81;21487;-66
2022/12/12 09:05:56;;;;;;;22.80;10.00;;;;;;;6.45;100.00;99132.73;1752527;82;21535;-65
2022/12/12 09:08:48;;;;;;;17.60;8.47;;;;;;;6.44;100.00;99128.88;1753000;82;21018;-63
2022/12/12 09:11:23;;;;;;;19.07;8.37;;;;;;;6.44;100.00;99129.70;1754862;82;20983;-64
2022/12/12 09:13:53;;;;;;;19.30;7.77;;;;;;;6.42;100.00;99124.17;1753643;81;20943;-66
2022/12/12 09:16:20;;;;;;;19.67;7.60;;;;;;;6.40;100.00;99133.73;1752788;81;21489;-66
2022/12/12 09:18:47;;;;;;;18.20;7.77;;;;;;;6.41;100.00;99138.59;1752582;82;21112;-65
2022/12/12 09:21:14;;;;;;;18.90;7.67;;;;;;;6.39;100.00;99121.33;1752399;82;21105;-64
2022/12/12 09:23:41;;;;;;;20.57;9.27;;;;;;;6.40;100.00;99123.50;1760354;81;21012;-65
2022/12/12 09:26:08;;;;;;;18.40;8.00;;;;;;;6.39;100.00;99125.36;1767841;81;21052;-65
2022/12/12 09:28:35;;;;;;;22.57;9.27;;;;;;;6.39;100.00;99129.39;1767744;80;21581;-65
2022/12/12 09:31:06;;;;;;;19.53;8.50;;;;;;;6.40;100.00;99127.53;1768050;81;21040;-66
2022/12/12 09:33:34;;;;;;;19.83;8.57;;;;;;;6.40;100.00;99112.25;1780686;80;21055;-66
2022/12/12 09:36:03;;;;;;;19.57;8.57;;;;;;;6.43;100.00;99121.84;1789424;79;21012;-65
2022/12/12 09:38:30;;;;;;;22.97;8.60;;;;;;;6.43;100.00;99117.30;1788624;80;21063;-66
2022/12/12 09:41:10;;;;;;;23.63;10.77;;;;;;;6.44;100.00;99118.95;1788189;80;21036;-67
2022/12/12 09:43:57;;;;;;;20.63;8.30;;;;;;;6.46;100.00;99111.59;1787253;80;21577;-66
2022/12/12 09:46:42;;;;;;;19.83;8.73;;;;;;;6.47;100.00;99107.06;1788336;80;21030;-66
2022/12/12 09:49:23;;;;;;;20.23;8.83;;;;;;;6.46;100.00;99107.57;1788882;80;21042;-76
2022/12/12 09:51:50;;;;;;;23.23;8.80;;;;;;;6.46;100.00;99106.70;1789829;79;21089;-74
2022/12/12 09:54:19;;;;;;;19.80;8.23;;;;;;;6.44;100.00;99108.22;1788790;80;21072;-75
2022/12/12 09:57:07;;;;;;;19.23;8.17;;;;;;;6.44;100.00;99109.56;1753520;82;21494;-77
2022/12/12 09:59:58;;;;;;;16.60;7.27;;;;;;;6.43;100.00;99106.55;1744665;82;21080;-76
2022/12/12 10:03:00;;;;;;;19.00;7.10;;;;;;;6.42;100.00;99107.55;1753767;82;21020;-74
2022/12/12 10:06:05;;;;;;;25.07;8.47;;;;;;;6.41;100.00;99116.63;1753978;82;21021;-76
2022/12/12 10:08:51;;;;;;;21.70;8.40;;;;;;;6.41;100.00;99116.63;1753871;82;21505;-76
2022/12/12 10:11:53;;;;;;;21.53;7.77;;;;;;;6.40;100.00;99104.20;1752753;82;21038;-75
2022/12/12 10:14:45;;;;;;;32.53;15.13;;;;;;;6.39;100.00;99094.48;1753112;82;21002;-76
2022/12/12 10:17:29;;;;;;;24.70;9.77;;;;;;;6.43;100.00;99091.78;1790392;79;21492;-75
2022/12/12 10:20:09;;;;;;;20.48;8.13;;;;;;;6.43;100.00;99086.41;1770993;80;20990;-76
2022/12/12 10:23:14;;;;;;;18.53;8.63;;;;;;;6.45;100.00;99086.25;1788566;80;21540;-75
2022/12/12 10:26:01;;;;;;;17.93;7.13;;;;;;;6.45;100.00;99091.63;1790674;79;20994;-76
2022/12/12 10:28:30;;;;;;;19.83;8.23;;;;;;;6.45;100.00;99088.94;1790029;79;20990;-76
2022/12/12 10:31:38;;;;;;;19.20;7.73;;;;;;;6.43;100.00;99086.93;1790838;79;21071;-75
2022/12/12 10:34:40;;;;;;;17.90;7.63;;;;;;;6.44;100.00;99087.25;1774836;80;21031;-75
2022/12/12 10:37:41;;;;;;;16.07;7.40;;;;;;;6.43;100.00;99082.39;1753750;82;21033;-75
2022/12/12 10:40:43;;;;;;;15.50;6.60;;;;;;;6.45;100.00;99084.91;1749713;82;20998;-74
2022/12/12 10:43:19;;;;;;;14.50;6.17;;;;;;;6.43;100.00;99087.76;1753585;82;21033;-75
2022/12/12 10:46:17;;;;;;;17.63;7.50;;;;;;;6.42;100.00;99087.41;1748185;80;21021;-73
2022/12/12 10:48:50;;;;;;;15.30;6.87;;;;;;;6.42;100.00;99084.72;1752457;82;21073;-76
2022/12/12 10:51:18;;;;;;;17.00;7.00;;;;;;;6.41;100.00;99084.89;1737350;82;21032;-77
2022/12/12 10:53:46;;;;;;;15.23;6.20;;;;;;;6.40;100.00;99088.08;1789494;80;21003;-66
2022/12/12 10:56:24;;;;;;;14.87;6.17;;;;;;;6.37;100.00;99088.41;1789416;80;21030;-66
2022/12/12 10:58:55;;;;;;;14.33;6.07;;;;;;;6.34;100.00;99092.80;1789557;80;21012;-66
2022/12/12 11:01:37;;;;;;;13.83;6.27;;;;;;;6.34;100.00;99093.28;1789766;80;21507;-66
2022/12/12 11:04:05;;;;;;;14.17;6.60;;;;;;;6.32;100.00;99088.58;1789520;80;21050;-66
2022/12/12 11:06:38;;;;;;;15.50;6.23;;;;;;;6.31;100.00;99094.98;1789561;80;20987;-66
2022/12/12 11:09:23;;;;;;;13.07;5.43;;;;;;;6.29;100.00;99087.09;1789897;80;21002;-66
2022/12/12 11:12:13;;;;;;;13.40;5.97;;;;;;;6.31;100.00;99099.00;1789363;80;21550;-65
2022/12/12 11:14:47;;;;;;;13.63;6.10;;;;;;;6.32;100.00;99099.33;1789386;80;21082;-67
2022/12/12 11:17:27;;;;;;;18.70;7.60;;;;;;;6.32;100.00;99092.13;1788528;80;21046;-66
2022/12/12 11:19:57;;;;;;;12.30;5.90;;;;;;;6.32;100.00;99091.27;1769358;80;20974;-66
2022/12/12 11:22:33;;;;;;;12.70;5.90;;;;;;;6.33;100.00;99104.53;1789504;80;21025;-64
2022/12/12 11:25:00;;;;;;;14.40;6.83;;;;;;;6.33;100.00;99083.56;1789030;80;21026;-64
2022/12/12 11:27:34;;;;;;;14.57;6.63;;;;;;;6.33;100.00;99091.11;1790279;80;21046;-65
2022/12/12 11:30:05;;;;;;;14.18;6.33;;;;;;;6.34;100.00;99087.91;1790080;79;21051;-65
2022/12/12 11:32:43;;;;;;;12.17;5.40;;;;;;;6.34;100.00;99089.25;1797660;79;21000;-64
2022/12/12 11:35:23;;;;;;;15.80;6.00;;;;;;;6.34;100.00;99079.85;1747312;82;20939;-63
2022/12/12 11:37:59;;;;;;;11.20;5.30;;;;;;;6.33;100.00;99085.73;1746117;82;21024;-66
2022/12/12 11:40:30;;;;;;;10.60;4.70;;;;;;;6.33;100.00;99077.68;1753218;80;21037;-65
2022/12/12 11:43:28;;;;;;;9.60;4.63;;;;;;;6.33;100.00;99085.73;1725078;82;21085;-65
2022/12/12 11:46:09;;;;;;;9.70;4.40;;;;;;;6.36;100.00;99079.21;1740484;82;21006;-66
2022/12/12 11:48:54;;;;;;;14.13;5.40;;;;;;;6.36;100.00;99077.36;1751813;82;21046;-67
2022/12/12 11:51:42;;;;;;;10.13;4.93;;;;;;;6.36;100.00;99080.04;1753230;82;21002;-65
2022/12/12 11:54:30;;;;;;;10.10;4.93;;;;;;;6.37;100.00;99076.84;1752192;82;21094;-66
2022/12/12 11:57:38;;;;;;;10.63;5.20;;;;;;;6.36;100.00;99077.36;1752777;82;21031;-66
2022/12/12 12:00:16;;;;;;;12.80;4.63;;;;;;;6.34;100.00;99069.97;1752996;82;21089;-66
2022/12/12 12:03:00;;;;;;;10.07;4.60;;;;;;;6.33;100.00;99072.31;1752918;82;20998;-65
2022/12/12 12:05:54;;;;;;;9.97;4.93;;;;;;;6.33;100.00;99084.91;1752667;82;21003;-65
2022/12/12 12:08:34;;;;;;;;;;;;;;;6.32;100.00;99076.02;1759707;80;21026;-66
2022/12/12 12:11:12;;;;;;;8.90;4.37;;;;;;;6.32;100.00;99081.88;1784493;80;20090;-76
2022/12/12 12:14:01;;;;;;;12.47;5.07;;;;;;;6.32;100.00;99077.36;1787203;80;21002;-65
2022/12/12 12:17:08;;;;;;;10.07;4.70;;;;;;;6.33;100.00;99080.88;1789744;80;21519;-67
2022/12/12 12:19:53;;;;;;;9.57;4.40;;;;;;;6.34;100.00;99078.51;1788382;80;21050;-65
2022/12/12 12:22:43;;;;;;;8.57;4.60;;;;;;;6.34;100.00;99071.31;1785619;79;21079;-66
2022/12/12 12:25:40;;;;;;;11.67;4.13;;;;;;;6.34;100.00;99071.31;1788712;80;21020;-66
2022/12/12 12:43:28;;;;;;;8.30;4.40;;;;;;;6.63;100.00;99139.80;1784176;79;22789;-73
2022/12/12 12:46:30;;;;;;;8.07;4.47;;;;;;;6.64;100.00;99096.66;1676558;86;20971;-74
2022/12/12 12:49:13;;;;;;;10.87;4.10;;;;;;;6.62;100.00;99088.41;1693559;84;21049;-73
2022/12/12 12:51:58;;;;;;;8.10;3.97;;;;;;;6.60;100.00;99085.06;1689560;84;21522;-73
2022/12/12 12:54:36;;;;;;;10.77;4.60;;;;;;;6.59;100.00;99084.74;1703332;84;21053;-74
2022/12/12 12:57:08;;;;;;;7.63;4.40;;;;;;;6.56;100.00;99093.13;1705611;82;21025;-75
2022/12/12 12:59:43;;;;;;;8.77;3.77;;;;;;;6.53;100.00;99090.77;1705681;84;20986;-74
2022/12/12 13:02:58;;;;;;;7.57;4.13;;;;;;;6.50;100.00;99093.30;1705156;84;21040;-74
2022/12/12 13:05:49;;;;;;;7.43;4.10;;;;;;;6.49;100.00;99095.64;1704079;84;21503;-73
2022/12/12 13:09:01;;;;;;;6.97;3.43;;;;;;;6.48;100.00;99102.03;1701771;84;21073;-74
2022/12/12 13:11:41;;;;;;;8.10;4.43;;;;;;;6.48;100.00;99110.09;1704455;83;21053;-75
2022/12/12 13:14:31;;;;;;;10.53;4.27;;;;;;;6.50;100.00;99116.61;1706392;83;20993;-74
2022/12/12 13:17:02;;;;;;;7.93;4.23;;;;;;;6.49;100.00;99122.50;1705710;83;20982;-74
2022/12/12 13:19:40;;;;;;;8.00;3.80;;;;;;;6.49;100.00;99140.47;1709831;83;21072;-75
2022/12/12 13:22:23;;;;;;;6.97;4.53;;;;;;;6.48;100.00;99148.17;1735090;83;21001;-75
2022/12/12 13:25:32;;;;;;;11.17;5.03;;;;;;;6.46;100.00;99152.36;1755159;82;21282;-75
2022/12/12 13:28:24;;;;;;;10.60;5.17;;;;;;;6.45;100.00;99160.94;1750592;82;21580;-73
2022/12/12 13:31:23;;;;;;;13.73;5.40;;;;;;;6.45;100.00;99159.59;1751225;81;21046;-73
2022/12/12 13:34:07;;;;;;;13.87;6.80;;;;;;;6.48;100.00;99169.66;1686868;85;21039;-73
2022/12/12 13:36:36;;;;;;;;;;;;;;;6.48;100.00;99168.31;1695048;84;21089;-74
2022/12/12 13:39:05;;;;;;;8.80;4.20;;;;;;;6.48;100.00;99182.61;1698836;84;20162;-74
2022/12/12 13:41:57;;;;;;;6.83;3.90;;;;;;;6.49;100.00;99183.44;1698570;84;21045;-74
2022/12/12 13:44:44;;;;;;;8.60;4.03;;;;;;;6.49;100.00;99190.98;1657336;84;21396;-75
2022/12/12 13:47:29;;;;;;;5.03;3.23;;;;;;;6.49;100.00;99187.47;1697586;84;21579;-75
2022/12/12 13:50:13;;;;;;;6.37;3.50;;;;;;;6.48;100.00;99197.38;1698066;84;21625;-74
2022/12/12 13:52:41;;;;;;;7.63;3.80;;;;;;;6.47;100.00;99201.05;1699057;84;21056;-74
2022/12/12 13:55:17;;;;;;;5.27;3.20;;;;;;;6.47;100.00;99210.45;1700106;84;21093;-74
2022/12/12 13:58:09;;;;;;;6.53;3.30;;;;;;;6.47;100.00;99213.14;1698677;83;21571;-76
2022/12/12 14:00:38;;;;;;;7.23;3.67;;;;;;;6.48;100.00;99224.72;1704124;84;21044;-75
2022/12/12 14:03:17;;;;;;;7.70;4.40;;;;;;;6.44;100.00;99214.30;1696737;85;21010;-74
2022/12/12 14:05:49;;;;;;;5.93;3.60;;;;;;;6.44;100.00;99224.20;1702461;83;21035;-75
2022/12/12 14:08:21;;;;;;;4.10;3.17;;;;;;;6.44;100.00;99227.72;1711330;83;21008;-73
2022/12/12 14:10:53;;;;;;;9.53;4.10;;;;;;;6.44;100.00;99223.69;1720771;82;21054;-72
2022/12/12 14:13:31;;;;;;;5.40;3.50;;;;;;;6.44;100.00;99235.78;1726708;82;21664;-77
2022/12/12 14:16:06;;;;;;;4.80;3.27;;;;;;;6.49;100.00;99246.55;1727705;82;21490;-74
2022/12/12 14:18:39;;;;;;;6.60;4.10;;;;;;;6.52;100.00;99250.26;1727741;82;20969;-75
2022/12/12 14:21:11;;;;;;;8.07;4.10;;;;;;;6.51;100.00;99257.45;1726329;82;21336;-73
2022/12/12 14:23:43;;;;;;;;;;;;;;;6.52;100.00;99251.61;1729032;82;20973;-74
2022/12/12 14:26:33;;;;;;;5.07;3.60;;;;;;;6.52;100.00;99252.95;1722810;82;20192;-75
2022/12/12 18:18:42;;;;;;;11.07;5.13;;;;;;;1.92;100.00;99606.23;1822908;77;23013;-65
2022/12/12 18:21:13;;;;;;;13.83;6.10;;;;;;;1.94;100.00;99466.97;1829954;78;21045;-65
2022/12/12 18:23:40;;;;;;;12.10;6.57;;;;;;;1.95;100.00;99481.50;1860088;76;20982;-65
2022/12/12 18:26:12;;;;;;;13.63;6.40;;;;;;;1.95;100.00;99504.17;1860014;77;21021;-66
2022/12/12 18:28:40;;;;;;;;;;;;;;;1.94;100.00;99501.62;1863200;77;21041;-66
2022/12/12 18:31:09;;;;;;;12.53;5.67;;;;;;;1.92;100.00;99505.75;1860515;77;20106;-66
2022/12/12 18:33:38;;;;;;;12.00;6.23;;;;;;;1.92;100.00;99508.42;1860025;77;21018;-66
2022/12/12 18:36:15;;;;;;;11.27;6.00;;;;;;;1.95;100.00;99517.97;1860369;77;21032;-65
2022/12/12 18:38:42;;;;;;;18.30;6.97;;;;;;;1.92;100.00;99509.75;1830505;77;21088;-68
2022/12/12 18:41:09;;;;;;;14.97;6.47;;;;;;;1.90;100.00;99518.38;1860384;77;21044;-65
2022/12/12 18:43:37;;;;;;;17.07;7.47;;;;;;;1.89;100.00;99520.67;1860049;77;21057;-66
2022/12/12 18:46:11;;;;;;;15.83;6.87;;;;;;;1.84;100.00;99520.20;1860506;77;20978;-66
2022/12/12 18:48:53;;;;;;;16.50;7.03;;;;;;;1.80;100.00;99524.11;1860431;77;21005;-65
2022/12/12 18:51:22;;;;;;;16.03;6.80;;;;;;;1.79;100.00;99526.40;1860297;77;20970;-65
2022/12/12 18:53:50;;;;;;;17.00;6.93;;;;;;;1.77;100.00;99527.89;1829673;77;20946;-66
2022/12/12 18:56:21;;;;;;;16.40;7.27;;;;;;;1.77;100.00;99535.02;1860436;76;20978;-65
2022/12/12 18:58:48;;;;;;;16.60;6.93;;;;;;;1.75;100.00;99536.47;1860311;77;20993;-65
2022/12/12 19:01:19;;;;;;;17.97;6.83;;;;;;;1.72;100.00;99530.09;1860000;77;21006;-66
2022/12/12 19:03:49;;;;;;;19.77;8.20;;;;;;;1.70;100.00;99535.54;1860211;77;21494;-66
2022/12/12 19:06:19;;;;;;;23.90;8.40;;;;;;;1.69;100.00;99527.17;1860426;77;21027;-66
2022/12/12 19:08:46;;;;;;;20.73;7.57;;;;;;;1.70;100.00;99536.03;1860270;76;21079;-66
2022/12/12 19:11:13;;;;;;;18.87;8.17;;;;;;;1.69;100.00;99533.83;1860457;77;21447;-66
2022/12/12 19:13:41;;;;;;;22.83;9.90;;;;;;;1.70;100.00;99540.87;1860068;77;21005;-66
2022/12/12 19:16:13;;;;;;;22.70;9.00;;;;;;;1.71;100.00;99537.21;1860204;76;20997;-65
2022/12/12 19:18:40;;;;;;;25.70;10.53;;;;;;;1.72;100.00;99543.41;1843148;75;21053;-65
2022/12/12 19:21:10;;;;;;;24.70;10.60;;;;;;;1.75;100.00;99546.30;1838885;78;21007;-66
2022/12/12 19:23:41;;;;;;;22.07;9.63;;;;;;;1.71;100.00;99545.70;1838926;78;21007;-66
2022/12/12 19:26:25;;;;;;;23.97;9.73;;;;;;;1.70;100.00;99551.53;1839159;78;21021;-66
2022/12/12 19:29:02;;;;;;;22.07;9.60;;;;;;;1.72;100.00;99560.73;1838615;77;21744;-65
2022/12/12 19:31:32;;;;;;;23.87;10.13;;;;;;;1.73;100.00;99570.41;1838960;78;20969;-66
2022/12/12 19:33:58;;;;;;;24.77;9.33;;;;;;;1.70;100.00;99562.19;1838909;78;21409;-66
2022/12/12 19:36:25;;;;;;;19.87;7.87;;;;;;;1.73;100.00;99575.73;1838650;77;21002;-66
2022/12/12 19:38:53;;;;;;;24.70;10.20;;;;;;;1.76;100.00;99574.66;1838566;78;21054;-66
2022/12/12 19:41:21;;;;;;;28.67;12.07;;;;;;;1.79;100.00;99575.25;1838702;78;21495;-66
2022/12/12 19:43:49;;;;;;;23.50;10.33;;;;;;;1.80;100.00;99574.27;1838853;78;20990;-65
2022/12/12 19:46:18;;;;;;;28.90;11.90;;;;;;;1.79;100.00;99582.37;1838838;78;20978;-66
2022/12/12 19:48:45;;;;;;;25.67;10.73;;;;;;;1.80;100.00;99585.42;1838713;78;21065;-66
2022/12/12 19:51:16;;;;;;;26.83;11.03;;;;;;;1.80;100.00;99589.42;1838804;78;21510;-65
2022/12/12 19:53:48;;;;;;;28.47;10.90;;;;;;;1.83;100.00;99587.84;1838981;78;21068;-65
2022/12/12 19:56:21;;;;;;;26.33;10.78;;;;;;;1.84;100.00;99587.72;1839044;78;21049;-65
2022/12/12 19:58:49;;;;;;;23.38;10.80;;;;;;;1.84;100.00;99578.85;1839087;78;20999;-66
2022/12/12 20:01:22;;;;;;;29.27;12.27;;;;;;;1.81;100.00;99589.30;1839394;78;21439;-65
2022/12/12 20:03:54;;;;;;;29.03;12.30;;;;;;;1.81;100.00;99589.80;1838976;78;20967;-65
2022/12/12 20:06:22;;;;;;;29.98;11.88;;;;;;;1.81;100.00;99594.63;1838450;78;21046;-65
2022/12/12 20:08:50;;;;;;;28.23;11.80;;;;;;;1.84;100.00;99604.18;1838596;78;21019;-66
2022/12/12 20:11:22;;;;;;;22.17;9.00;;;;;;;1.84;100.00;99605.05;1838817;78;21052;-66
2022/12/12 20:13:54;;;;;;;25.63;9.93;;;;;;;1.82;100.00;99611.46;1838686;78;21006;-66
2022/12/12 20:16:24;;;;;;;20.32;9.05;;;;;;;1.79;100.00;99608.58;1839105;78;21420;-66